Bethel, Indiana
Current Conditions -  °F | °C
As of 3:35 PM on Tuesday 25 Nov 2014 (Local Time) from KVES Reporting Station
Overcast Overcast  
Wind Chill: 24°   Ceiling: 1600
Heat Index: 32°   Visibility: 10mi
Dew Point: 28°   Wind: 10mph
Humidity: 87%   Direction: 290°WNW
Pressure: 30.12"   Gusts: NA
Location:  39.9761°N, 84.8943°W
Report Text: KVES 252035Z AUTO 29009KT 10SM OVC016 00/M02 A3012 RMK AO2
Loading
Personal Weather Stations






























Interactive Weather Map New forecast layout! Learn more

10-Day Weather Forecast

Advertisements
Track Severe Weather on mobile